aviador You're here:

YAMB Decoded Metar

AMBERLEY in _UNIDENTIFIED
Report Time2018-02-20 13:30:00
UTC Time2018-02-20 13:54:20
Flight Rules vfr VFR
Wind140° at 07 kt
W.Decomp.*RWY 15: 6.5 kt HW 2.5 kt LCW
RWY 04: 0.1 kt HW 7.0 kt RCW
W.Rank140° ranks 27
Current wind is above 140° avg. (6.7)
Visibility9999 m
Phenomena:N/A
Clouds:Scattered 060 Hf
Expected CloudBase > 2,800 ft AGL from Temp-Dew spread
CeilingNone
Temp23°C (ISA +8)
Dew Point16°C (65% RH)
AAT22.5°C
QNH1010 hPa
Density Alt1,388 ft
Elevation92 ft
Report Wrong Elevation
Raw Report
YAMB 201330Z AUTO 14007KT 9999 // SCT060 23/16 Q1010=

Extra information for YAMB:More info

Metar Taf Metar & Taf Last 4 Metars F.Rules Stats Wind Profile Meteogram Temp Stats Airport Information Weather charts Add Link Nearby VenuesMetar ALERT Operation Metar Decoded Social comments